»·PEaware :: ASA542 KSEA-KSMF

ASA542 :: KSEA-KSMF

FLIGHT INFORMATION

Flight Status: Arrived
Operator:
Alaska Airlines
More flights by this operator :: More flights under this callsign
Pilot: Scott R. (20908)
Aircraft: BOEING 737-200
(B732)
More flights by this aircraft type
Origin: KSEA Seattle-Tacoma Intl
United States
Destination: KSMF Sacramento Intl
United States
More flights between these airports :: More routes between these airports
Route: SEA7 SEA J65 LMT TUDOR2
File this flight plan on PilotEdge
Remarks:
Altitude:
(Current/Filed)
31,000ft
Speed:
(Current/Filed)
440kts
Departed: 14-Jan-21 08:59 PM
Arrived: 14-Jan-21 10:30 PM
Distance/Time
Traveled:
526nm/1:31
Distance/Time
To Go:
Arrived

Flight Plot

Page will automatically refresh every two minutes.

Flight plan parsing failed; only flown route is shown


Map Options




Map Legend


Flown Route
Filed Route
Departure Airport
Arrival Airport
Navaid (VOR, NDB)
Fix

Horizontal Profiles

Position Reports

Time Latitude Longitude Heading Altitude Ground
Speed
14-Jan-21 20:40 47.447846 -122.302660 39 435ft 0kts
14-Jan-21 20:41 47.447846 -122.302660 39 435ft 0kts
14-Jan-21 20:42 47.447846 -122.302660 39 435ft 0kts
14-Jan-21 20:43 47.447846 -122.302660 39 435ft 0kts
14-Jan-21 20:44 47.447846 -122.302660 39 435ft 0kts
14-Jan-21 20:45 47.447846 -122.302660 39 435ft 0kts
14-Jan-21 20:46 47.447846 -122.302660 39 435ft 0kts
14-Jan-21 20:47 47.447846 -122.302660 39 435ft 0kts
14-Jan-21 20:48 47.447846 -122.302660 39 435ft 0kts
14-Jan-21 20:49 47.447657 -122.302886 37 435ft 2kts
14-Jan-21 20:50 47.447096 -122.302878 321 435ft 2kts
14-Jan-21 20:51 47.447020 -122.302768 310 435ft 0kts
14-Jan-21 20:52 47.447020 -122.302768 310 435ft 0kts
14-Jan-21 20:53 47.447648 -122.304311 273 435ft 6kts
14-Jan-21 20:54 47.450117 -122.306279 0 435ft 17kts
14-Jan-21 20:55 47.455139 -122.306226 0 435ft 17kts
14-Jan-21 20:56 47.460354 -122.306178 0 435ft 18kts
14-Jan-21 20:57 47.463725 -122.306755 283 435ft 5kts
14-Jan-21 20:58 47.449731 -122.307885 180 436ft 148kts
14-Jan-21 20:59 47.400507 -122.308100 184 2475ft 194kts
14-Jan-21 21:00 47.337228 -122.308713 180 4850ft 243kts
14-Jan-21 21:01 47.268643 -122.306166 170 7948ft 252kts
14-Jan-21 21:02 47.198960 -122.275678 174 10392ft 271kts
14-Jan-21 21:03 47.115383 -122.262629 183 12208ft 303kts
14-Jan-21 21:04 47.030686 -122.256602 185 14502ft 309kts
14-Jan-21 21:05 46.943112 -122.250437 184 16424ft 320kts
14-Jan-21 21:06 46.852361 -122.240348 183 18148ft 331kts
14-Jan-21 21:07 46.758686 -122.227473 182 19930ft 344kts
14-Jan-21 21:08 46.662190 -122.213371 182 21457ft 356kts
14-Jan-21 21:09 46.561830 -122.199150 182 22863ft 366kts
14-Jan-21 21:10 46.458890 -122.185387 183 24153ft 374kts
14-Jan-21 21:11 46.355529 -122.172070 183 25535ft 375kts
14-Jan-21 21:12 46.250932 -122.159139 183 26624ft 380kts
14-Jan-21 21:13 46.145107 -122.146664 183 27779ft 380kts
14-Jan-21 21:14 46.040659 -122.133965 184 28912ft 377kts
14-Jan-21 21:15 45.938256 -122.120785 184 30258ft 365kts
14-Jan-21 21:16 45.836744 -122.108241 184 31045ft 366kts
14-Jan-21 21:17 45.734468 -122.096956 185 31441ft 376kts
14-Jan-21 21:18 45.627426 -122.086265 184 31439ft 396kts
14-Jan-21 21:19 45.515030 -122.075029 183 31450ft 413kts
14-Jan-21 21:20 45.398640 -122.061695 182 31460ft 428kts
14-Jan-21 21:21 45.279868 -122.045710 182 31462ft 429kts
14-Jan-21 21:22 45.161248 -122.027745 181 31472ft 429kts
14-Jan-21 21:23 45.043031 -122.009654 181 31468ft 429kts
14-Jan-21 21:24 44.924365 -121.992861 181 31456ft 429kts
14-Jan-21 21:25 44.805624 -121.963388 177 31474ft 435kts
14-Jan-21 21:26 44.685257 -121.942810 182 31484ft 431kts
14-Jan-21 21:27 44.566361 -121.939452 187 31486ft 428kts
14-Jan-21 21:28 44.447537 -121.949615 191 31480ft 426kts
14-Jan-21 21:29 44.328803 -121.963506 190 31474ft 428kts
14-Jan-21 21:30 44.208858 -121.950203 169 31476ft 447kts
14-Jan-21 21:31 44.089186 -121.912506 178 31486ft 438kts
14-Jan-21 21:32 43.968608 -121.884303 178 31484ft 439kts
14-Jan-21 21:33 43.847563 -121.869490 184 31485ft 435kts
14-Jan-21 21:34 43.727599 -121.870167 188 31491ft 432kts
14-Jan-21 21:35 43.606971 -121.877940 188 31494ft 433kts
14-Jan-21 21:36 43.486172 -121.879472 184 31493ft 437kts
14-Jan-21 21:37 43.364762 -121.865968 178 31493ft 442kts
14-Jan-21 21:38 43.242668 -121.839216 176 31494ft 446kts
14-Jan-21 21:39 43.120419 -121.811651 178 31494ft 445kts
14-Jan-21 21:40 42.997708 -121.795672 182 31494ft 442kts
14-Jan-21 21:41 42.875339 -121.791976 185 31494ft 440kts
14-Jan-21 21:42 42.752736 -121.789359 183 31494ft 443kts
14-Jan-21 21:43 42.629162 -121.777491 180 31494ft 447kts
14-Jan-21 21:44 42.505438 -121.761064 180 31494ft 447kts
14-Jan-21 21:45 42.381831 -121.748668 181 31494ft 447kts
14-Jan-21 21:46 42.257727 -121.737668 181 31494ft 447kts
14-Jan-21 21:47 42.133566 -121.727166 184 31493ft 445kts
14-Jan-21 21:48 42.010008 -121.726650 185 31494ft 444kts
14-Jan-21 21:49 41.887565 -121.728456 186 31494ft 444kts
14-Jan-21 21:50 41.764344 -121.729991 185 31494ft 445kts
14-Jan-21 21:51 41.640218 -121.730325 185 31494ft 446kts
14-Jan-21 21:52 41.515851 -121.729812 185 31494ft 447kts
14-Jan-21 21:54 41.391513 -121.729227 185 31485ft 448kts
14-Jan-21 21:55 41.266845 -121.728623 185 31454ft 449kts
14-Jan-21 21:56 41.142214 -121.728344 185 31457ft 449kts
14-Jan-21 21:57 41.016979 -121.728103 185 31457ft 450kts
14-Jan-21 21:58 40.892943 -121.728136 185 31457ft 451kts
14-Jan-21 21:59 40.767532 -121.728101 185 31458ft 452kts
14-Jan-21 22:00 40.645598 -121.727715 185 30024ft 434kts
14-Jan-21 22:01 40.526508 -121.727247 184 28060ft 422kts
14-Jan-21 22:02 40.411173 -121.725216 177 25979ft 413kts
14-Jan-21 22:03 40.298793 -121.708199 178 24036ft 399kts
14-Jan-21 22:04 40.190643 -121.700220 182 22192ft 383kts
14-Jan-21 22:05 40.085809 -121.699492 183 20331ft 371kts
14-Jan-21 22:06 39.984262 -121.700881 183 18490ft 361kts
14-Jan-21 22:07 39.885543 -121.698681 180 16679ft 353kts
14-Jan-21 22:07 39.804838 -121.691670 177 15345ft 343kts
14-Jan-21 22:09 39.696536 -121.673648 173 13622ft 335kts
14-Jan-21 22:10 39.605166 -121.654856 172 12333ft 332kts
14-Jan-21 22:11 39.514460 -121.638960 174 11993ft 330kts
14-Jan-21 22:11 39.437605 -121.630606 178 11999ft 330kts
14-Jan-21 22:12 39.345936 -121.627085 180 11997ft 330kts
14-Jan-21 22:13 39.254607 -121.626591 180 11999ft 327kts
14-Jan-21 22:14 39.164708 -121.623093 178 11993ft 310kts
14-Jan-21 22:15 39.081870 -121.608056 171 10793ft 301kts
14-Jan-21 22:16 39.028144 -121.540711 105 9529ft 290kts
14-Jan-21 22:17 39.007891 -121.441709 103 8284ft 283kts
14-Jan-21 22:18 38.995684 -121.345998 64 6988ft 263kts
14-Jan-21 22:19 39.051770 -121.342729 309 5996ft 247kts
14-Jan-21 22:20 39.079615 -121.419723 261 5022ft 241kts
14-Jan-21 22:21 39.061136 -121.502571 254 3816ft 239kts
14-Jan-21 22:22 39.029739 -121.573743 208 2751ft 239kts
14-Jan-21 22:23 38.965561 -121.577855 175 2004ft 225kts
14-Jan-21 22:24 38.905625 -121.574836 181 2000ft 212kts
14-Jan-21 22:25 38.850918 -121.576910 182 1984ft 180kts
14-Jan-21 22:26 38.802572 -121.578464 181 1957ft 172kts
14-Jan-21 22:27 38.758337 -121.579353 179 1063ft 149kts
14-Jan-21 22:28 38.718178 -121.579883 179 262ft 138kts
14-Jan-21 22:29 38.692068 -121.580842 205 27ft 27kts
14-Jan-21 22:30 38.690458 -121.582093 224 27ft 10kts
14-Jan-21 22:31 38.692382 -121.582915 0 28ft 10kts
14-Jan-21 22:32 38.696022 -121.582896 359 28ft 16kts
14-Jan-21 22:33 38.697663 -121.587752 270 30ft 15kts
14-Jan-21 22:34 38.695504 -121.589232 176 30ft 12kts
14-Jan-21 22:35 38.694675 -121.591722 292 31ft 6kts
14-Jan-21 22:36 38.695196 -121.591962 2 31ft 0kts

Navigation Log

Ident Type
Flight plan parsing failed, navigation log unavailable